sensor_id;sensor_type;location;lat;lon;timestamp;P1;durP1;ratioP1;P2;durP2;ratioP2
56116;SDS011;41989;45.356;20.392;2023-06-14T00:01:07;13.13;;;4.80;;
56116;SDS011;41989;45.356;20.392;2023-06-14T00:03:34;8.02;;;3.92;;
56116;SDS011;41989;45.356;20.392;2023-06-14T00:06:00;7.93;;;4.50;;
56116;SDS011;41989;45.356;20.392;2023-06-14T00:08:26;8.68;;;5.13;;
56116;SDS011;41989;45.356;20.392;2023-06-14T00:10:52;7.72;;;4.72;;
56116;SDS011;41989;45.356;20.392;2023-06-14T00:13:18;7.95;;;4.97;;
56116;SDS011;41989;45.356;20.392;2023-06-14T00:15:45;6.72;;;4.72;;
56116;SDS011;41989;45.356;20.392;2023-06-14T00:18:12;7.13;;;4.75;;
56116;SDS011;41989;45.356;20.392;2023-06-14T00:20:38;7.72;;;5.18;;
56116;SDS011;41989;45.356;20.392;2023-06-14T00:23:04;10.07;;;6.10;;
56116;SDS011;41989;45.356;20.392;2023-06-14T00:25:30;7.05;;;4.82;;
56116;SDS011;41989;45.356;20.392;2023-06-14T00:27:57;8.63;;;4.97;;
56116;SDS011;41989;45.356;20.392;2023-06-14T00:30:23;7.30;;;4.78;;
56116;SDS011;41989;45.356;20.392;2023-06-14T00:32:50;7.55;;;4.65;;
56116;SDS011;41989;45.356;20.392;2023-06-14T00:35:16;11.30;;;5.15;;
56116;SDS011;41989;45.356;20.392;2023-06-14T00:37:42;10.05;;;5.05;;
56116;SDS011;41989;45.356;20.392;2023-06-14T00:40:08;6.22;;;5.15;;
56116;SDS011;41989;45.356;20.392;2023-06-14T00:42:34;7.95;;;4.80;;
56116;SDS011;41989;45.356;20.392;2023-06-14T00:45:01;7.32;;;4.93;;
56116;SDS011;41989;45.356;20.392;2023-06-14T00:47:27;8.65;;;4.88;;
56116;SDS011;41989;45.356;20.392;2023-06-14T00:49:53;5.80;;;4.63;;
56116;SDS011;41989;45.356;20.392;2023-06-14T00:52:20;10.13;;;5.30;;
56116;SDS011;41989;45.356;20.392;2023-06-14T00:54:46;8.45;;;5.50;;
56116;SDS011;41989;45.356;20.392;2023-06-14T00:57:12;9.68;;;4.65;;
56116;SDS011;41989;45.356;20.392;2023-06-14T00:59:42;6.40;;;4.85;;
56116;SDS011;41989;45.356;20.392;2023-06-14T01:02:09;8.52;;;5.85;;
56116;SDS011;41989;45.356;20.392;2023-06-14T01:04:35;8.95;;;5.35;;
56116;SDS011;41989;45.356;20.392;2023-06-14T01:12:29;7.63;;;4.85;;
56116;SDS011;41989;45.356;20.392;2023-06-14T01:14:57;8.32;;;4.70;;
56116;SDS011;41989;45.356;20.392;2023-06-14T01:17:25;7.85;;;4.97;;
56116;SDS011;41989;45.356;20.392;2023-06-14T01:19:51;8.82;;;4.97;;
56116;SDS011;41989;45.356;20.392;2023-06-14T01:22:24;10.70;;;5.32;;
56116;SDS011;41989;45.356;20.392;2023-06-14T01:24:50;13.45;;;5.38;;
56116;SDS011;41989;45.356;20.392;2023-06-14T01:27:20;8.93;;;5.45;;
56116;SDS011;41989;45.356;20.392;2023-06-14T01:29:48;8.50;;;5.40;;
56116;SDS011;41989;45.356;20.392;2023-06-14T01:32:16;8.85;;;5.00;;
56116;SDS011;41989;45.356;20.392;2023-06-14T01:34:43;7.90;;;5.25;;
56116;SDS011;41989;45.356;20.392;2023-06-14T01:37:09;7.78;;;5.30;;
56116;SDS011;41989;45.356;20.392;2023-06-14T01:39:36;10.18;;;4.88;;
56116;SDS011;41989;45.356;20.392;2023-06-14T01:42:02;6.53;;;4.70;;
56116;SDS011;41989;45.356;20.392;2023-06-14T01:44:29;9.30;;;5.22;;
56116;SDS011;41989;45.356;20.392;2023-06-14T01:46:56;9.80;;;5.40;;
56116;SDS011;41989;45.356;20.392;2023-06-14T01:49:22;7.10;;;5.07;;
56116;SDS011;41989;45.356;20.392;2023-06-14T01:51:48;9.02;;;5.40;;
56116;SDS011;41989;45.356;20.392;2023-06-14T01:54:14;6.95;;;5.03;;
56116;SDS011;41989;45.356;20.392;2023-06-14T01:56:40;8.10;;;5.20;;
56116;SDS011;41989;45.356;20.392;2023-06-14T01:59:06;8.93;;;5.88;;
56116;SDS011;41989;45.356;20.392;2023-06-14T02:01:33;8.15;;;5.07;;
56116;SDS011;41989;45.356;20.392;2023-06-14T02:03:59;21.40;;;5.88;;
56116;SDS011;41989;45.356;20.392;2023-06-14T02:06:26;7.85;;;5.43;;
56116;SDS011;41989;45.356;20.392;2023-06-14T02:08:53;8.77;;;5.80;;
56116;SDS011;41989;45.356;20.392;2023-06-14T02:11:19;11.85;;;6.25;;
56116;SDS011;41989;45.356;20.392;2023-06-14T02:13:45;10.45;;;6.10;;
56116;SDS011;41989;45.356;20.392;2023-06-14T02:16:11;7.53;;;4.93;;
56116;SDS011;41989;45.356;20.392;2023-06-14T02:18:39;12.00;;;5.65;;
56116;SDS011;41989;45.356;20.392;2023-06-14T02:21:05;7.30;;;5.30;;
56116;SDS011;41989;45.356;20.392;2023-06-14T02:23:31;8.32;;;5.45;;
56116;SDS011;41989;45.356;20.392;2023-06-14T02:25:58;9.80;;;5.43;;
56116;SDS011;41989;45.356;20.392;2023-06-14T02:28:24;9.75;;;5.03;;
56116;SDS011;41989;45.356;20.392;2023-06-14T02:30:50;9.15;;;5.53;;
56116;SDS011;41989;45.356;20.392;2023-06-14T02:33:16;9.75;;;6.05;;
56116;SDS011;41989;45.356;20.392;2023-06-14T02:35:42;11.63;;;6.30;;
56116;SDS011;41989;45.356;20.392;2023-06-14T02:38:12;18.30;;;7.10;;
56116;SDS011;41989;45.356;20.392;2023-06-14T02:40:38;15.15;;;6.53;;
56116;SDS011;41989;45.356;20.392;2023-06-14T02:43:07;10.43;;;5.90;;
56116;SDS011;41989;45.356;20.392;2023-06-14T02:45:33;13.20;;;7.82;;
56116;SDS011;41989;45.356;20.392;2023-06-14T02:47:59;14.55;;;8.77;;
56116;SDS011;41989;45.356;20.392;2023-06-14T02:50:25;16.75;;;10.77;;
56116;SDS011;41989;45.356;20.392;2023-06-14T02:52:53;13.95;;;9.23;;
56116;SDS011;41989;45.356;20.392;2023-06-14T02:55:22;19.27;;;12.57;;
56116;SDS011;41989;45.356;20.392;2023-06-14T02:57:48;31.83;;;20.63;;
56116;SDS011;41989;45.356;20.392;2023-06-14T03:00:14;23.90;;;14.90;;
56116;SDS011;41989;45.356;20.392;2023-06-14T03:02:41;24.55;;;15.40;;
56116;SDS011;41989;45.356;20.392;2023-06-14T03:05:10;20.67;;;14.65;;
56116;SDS011;41989;45.356;20.392;2023-06-14T03:07:37;21.83;;;16.42;;
56116;SDS011;41989;45.356;20.392;2023-06-14T03:10:06;32.70;;;19.27;;
56116;SDS011;41989;45.356;20.392;2023-06-14T03:12:34;24.65;;;16.98;;
56116;SDS011;41989;45.356;20.392;2023-06-14T03:15:00;23.77;;;17.52;;
56116;SDS011;41989;45.356;20.392;2023-06-14T03:17:27;24.10;;;18.33;;
56116;SDS011;41989;45.356;20.392;2023-06-14T03:19:55;31.15;;;17.23;;
56116;SDS011;41989;45.356;20.392;2023-06-14T03:22:21;22.38;;;16.52;;
56116;SDS011;41989;45.356;20.392;2023-06-14T03:24:47;32.25;;;17.02;;
56116;SDS011;41989;45.356;20.392;2023-06-14T03:27:13;26.17;;;16.75;;
56116;SDS011;41989;45.356;20.392;2023-06-14T03:29:39;27.13;;;18.17;;
56116;SDS011;41989;45.356;20.392;2023-06-14T03:32:06;35.53;;;16.73;;
56116;SDS011;41989;45.356;20.392;2023-06-14T03:34:32;43.03;;;29.02;;
56116;SDS011;41989;45.356;20.392;2023-06-14T03:36:58;20.13;;;12.00;;
56116;SDS011;41989;45.356;20.392;2023-06-14T03:39:29;21.15;;;12.32;;
56116;SDS011;41989;45.356;20.392;2023-06-14T03:41:55;22.27;;;12.60;;
56116;SDS011;41989;45.356;20.392;2023-06-14T03:44:21;19.35;;;10.00;;
56116;SDS011;41989;45.356;20.392;2023-06-14T03:46:47;14.40;;;7.97;;
56116;SDS011;41989;45.356;20.392;2023-06-14T03:49:13;18.92;;;8.25;;
56116;SDS011;41989;45.356;20.392;2023-06-14T03:51:42;16.92;;;8.40;;
56116;SDS011;41989;45.356;20.392;2023-06-14T03:54:08;14.73;;;7.78;;
56116;SDS011;41989;45.356;20.392;2023-06-14T03:56:34;11.02;;;6.32;;
56116;SDS011;41989;45.356;20.392;2023-06-14T03:59:03;10.02;;;5.75;;
56116;SDS011;41989;45.356;20.392;2023-06-14T04:01:29;13.75;;;6.20;;
56116;SDS011;41989;45.356;20.392;2023-06-14T04:03:56;11.65;;;6.53;;
56116;SDS011;41989;45.356;20.392;2023-06-14T04:06:22;8.73;;;5.60;;
56116;SDS011;41989;45.356;20.392;2023-06-14T04:08:50;11.13;;;5.90;;
56116;SDS011;41989;45.356;20.392;2023-06-14T04:11:16;10.43;;;5.80;;
56116;SDS011;41989;45.356;20.392;2023-06-14T04:13:43;9.38;;;5.88;;
56116;SDS011;41989;45.356;20.392;2023-06-14T04:16:09;10.38;;;5.70;;
56116;SDS011;41989;45.356;20.392;2023-06-14T04:18:35;9.65;;;6.65;;
56116;SDS011;41989;45.356;20.392;2023-06-14T04:21:01;9.50;;;5.80;;
56116;SDS011;41989;45.356;20.392;2023-06-14T04:23:28;8.55;;;5.80;;
56116;SDS011;41989;45.356;20.392;2023-06-14T04:25:55;10.10;;;5.88;;
56116;SDS011;41989;45.356;20.392;2023-06-14T04:28:26;14.40;;;5.55;;
56116;SDS011;41989;45.356;20.392;2023-06-14T04:30:53;11.85;;;5.53;;
56116;SDS011;41989;45.356;20.392;2023-06-14T04:33:19;10.68;;;6.03;;
56116;SDS011;41989;45.356;20.392;2023-06-14T04:35:45;9.73;;;5.30;;
56116;SDS011;41989;45.356;20.392;2023-06-14T04:38:14;7.30;;;5.28;;
56116;SDS011;41989;45.356;20.392;2023-06-14T04:40:41;10.30;;;5.45;;
56116;SDS011;41989;45.356;20.392;2023-06-14T04:43:11;11.43;;;5.40;;
56116;SDS011;41989;45.356;20.392;2023-06-14T04:45:37;9.73;;;4.97;;
56116;SDS011;41989;45.356;20.392;2023-06-14T04:48:04;13.27;;;5.70;;
56116;SDS011;41989;45.356;20.392;2023-06-14T04:50:45;10.23;;;5.15;;
56116;SDS011;41989;45.356;20.392;2023-06-14T04:53:11;9.65;;;5.00;;
56116;SDS011;41989;45.356;20.392;2023-06-14T04:55:37;11.35;;;4.78;;
56116;SDS011;41989;45.356;20.392;2023-06-14T04:58:03;13.77;;;5.72;;
56116;SDS011;41989;45.356;20.392;2023-06-14T05:00:30;12.52;;;5.10;;
56116;SDS011;41989;45.356;20.392;2023-06-14T05:02:56;10.18;;;5.00;;
56116;SDS011;41989;45.356;20.392;2023-06-14T05:05:22;9.52;;;5.00;;
56116;SDS011;41989;45.356;20.392;2023-06-14T05:07:49;10.68;;;4.88;;
56116;SDS011;41989;45.356;20.392;2023-06-14T05:10:18;8.07;;;4.68;;
56116;SDS011;41989;45.356;20.392;2023-06-14T05:12:44;10.50;;;4.75;;
56116;SDS011;41989;45.356;20.392;2023-06-14T05:15:14;6.97;;;4.10;;
56116;SDS011;41989;45.356;20.392;2023-06-14T05:17:40;15.35;;;4.70;;
56116;SDS011;41989;45.356;20.392;2023-06-14T05:20:06;7.32;;;4.63;;
56116;SDS011;41989;45.356;20.392;2023-06-14T05:22:35;8.98;;;4.50;;
56116;SDS011;41989;45.356;20.392;2023-06-14T05:25:01;8.65;;;4.95;;
56116;SDS011;41989;45.356;20.392;2023-06-14T05:27:27;8.80;;;4.15;;
56116;SDS011;41989;45.356;20.392;2023-06-14T05:29:53;9.40;;;4.32;;
56116;SDS011;41989;45.356;20.392;2023-06-14T05:32:23;12.25;;;5.30;;
56116;SDS011;41989;45.356;20.392;2023-06-14T05:34:49;21.30;;;10.52;;
56116;SDS011;41989;45.356;20.392;2023-06-14T05:37:16;34.50;;;16.58;;
56116;SDS011;41989;45.356;20.392;2023-06-14T05:39:42;25.67;;;16.33;;
56116;SDS011;41989;45.356;20.392;2023-06-14T05:42:08;29.25;;;16.60;;
56116;SDS011;41989;45.356;20.392;2023-06-14T05:44:34;23.52;;;10.18;;
56116;SDS011;41989;45.356;20.392;2023-06-14T05:47:00;22.45;;;12.75;;
56116;SDS011;41989;45.356;20.392;2023-06-14T05:49:26;11.50;;;7.55;;
56116;SDS011;41989;45.356;20.392;2023-06-14T05:51:53;13.95;;;7.38;;
56116;SDS011;41989;45.356;20.392;2023-06-14T05:54:19;13.63;;;9.05;;
56116;SDS011;41989;45.356;20.392;2023-06-14T05:56:47;15.90;;;8.35;;
56116;SDS011;41989;45.356;20.392;2023-06-14T05:59:13;24.45;;;9.32;;
56116;SDS011;41989;45.356;20.392;2023-06-14T06:01:39;15.25;;;6.18;;
56116;SDS011;41989;45.356;20.392;2023-06-14T06:04:08;11.57;;;4.15;;
56116;SDS011;41989;45.356;20.392;2023-06-14T06:06:34;17.83;;;4.10;;
56116;SDS011;41989;45.356;20.392;2023-06-14T06:09:00;10.32;;;4.07;;
56116;SDS011;41989;45.356;20.392;2023-06-14T06:11:27;19.48;;;4.10;;
56116;SDS011;41989;45.356;20.392;2023-06-14T06:44:21;9.32;;;2.63;;
56116;SDS011;41989;45.356;20.392;2023-06-14T06:46:48;8.90;;;2.75;;
56116;SDS011;41989;45.356;20.392;2023-06-14T06:49:14;12.48;;;2.70;;
56116;SDS011;41989;45.356;20.392;2023-06-14T06:51:43;12.10;;;3.22;;
56116;SDS011;41989;45.356;20.392;2023-06-14T06:54:24;7.15;;;2.55;;
56116;SDS011;41989;45.356;20.392;2023-06-14T06:56:50;9.65;;;3.20;;
56116;SDS011;41989;45.356;20.392;2023-06-14T06:59:16;8.32;;;2.80;;
56116;SDS011;41989;45.356;20.392;2023-06-14T07:01:42;10.27;;;2.92;;
56116;SDS011;41989;45.356;20.392;2023-06-14T07:04:09;6.93;;;2.97;;
56116;SDS011;41989;45.356;20.392;2023-06-14T07:06:35;10.63;;;3.22;;
56116;SDS011;41989;45.356;20.392;2023-06-14T07:09:02;6.07;;;2.17;;
56116;SDS011;41989;45.356;20.392;2023-06-14T07:11:30;10.18;;;2.45;;
56116;SDS011;41989;45.356;20.392;2023-06-14T07:13:56;5.45;;;2.50;;
56116;SDS011;41989;45.356;20.392;2023-06-14T07:16:22;5.13;;;2.30;;
56116;SDS011;41989;45.356;20.392;2023-06-14T07:18:48;3.78;;;2.28;;
56116;SDS011;41989;45.356;20.392;2023-06-14T07:21:14;5.03;;;2.40;;
56116;SDS011;41989;45.356;20.392;2023-06-14T07:23:40;5.25;;;2.40;;
56116;SDS011;41989;45.356;20.392;2023-06-14T07:26:06;7.32;;;2.25;;
56116;SDS011;41989;45.356;20.392;2023-06-14T07:28:32;4.07;;;2.22;;
56116;SDS011;41989;45.356;20.392;2023-06-14T07:30:59;6.07;;;2.88;;
56116;SDS011;41989;45.356;20.392;2023-06-14T07:33:25;9.98;;;2.90;;
56116;SDS011;41989;45.356;20.392;2023-06-14T07:35:51;8.95;;;2.65;;
56116;SDS011;41989;45.356;20.392;2023-06-14T07:38:18;7.78;;;3.08;;
56116;SDS011;41989;45.356;20.392;2023-06-14T07:40:44;4.05;;;2.58;;
56116;SDS011;41989;45.356;20.392;2023-06-14T07:43:10;8.68;;;2.50;;
56116;SDS011;41989;45.356;20.392;2023-06-14T07:45:37;5.55;;;2.80;;
56116;SDS011;41989;45.356;20.392;2023-06-14T07:48:03;4.88;;;2.35;;
56116;SDS011;41989;45.356;20.392;2023-06-14T07:50:29;4.63;;;2.30;;
56116;SDS011;41989;45.356;20.392;2023-06-14T07:52:56;6.50;;;2.72;;
56116;SDS011;41989;45.356;20.392;2023-06-14T07:55:22;4.60;;;1.85;;
56116;SDS011;41989;45.356;20.392;2023-06-14T07:57:50;5.13;;;1.95;;
56116;SDS011;41989;45.356;20.392;2023-06-14T08:00:16;8.77;;;2.50;;
56116;SDS011;41989;45.356;20.392;2023-06-14T08:02:43;3.75;;;2.10;;
56116;SDS011;41989;45.356;20.392;2023-06-14T08:05:10;2.80;;;1.80;;
56116;SDS011;41989;45.356;20.392;2023-06-14T08:07:36;2.95;;;1.90;;
56116;SDS011;41989;45.356;20.392;2023-06-14T08:10:03;5.68;;;1.90;;
56116;SDS011;41989;45.356;20.392;2023-06-14T08:12:29;6.50;;;2.38;;
56116;SDS011;41989;45.356;20.392;2023-06-14T08:14:56;91.55;;;8.85;;
56116;SDS011;41989;45.356;20.392;2023-06-14T08:17:22;7.90;;;1.90;;
56116;SDS011;41989;45.356;20.392;2023-06-14T08:19:48;6.25;;;1.60;;
56116;SDS011;41989;45.356;20.392;2023-06-14T08:22:14;4.47;;;2.10;;
56116;SDS011;41989;45.356;20.392;2023-06-14T08:24:41;7.75;;;2.30;;
56116;SDS011;41989;45.356;20.392;2023-06-14T08:27:07;7.93;;;2.15;;
56116;SDS011;41989;45.356;20.392;2023-06-14T08:29:34;13.80;;;2.13;;
56116;SDS011;41989;45.356;20.392;2023-06-14T08:32:00;2.78;;;1.80;;
56116;SDS011;41989;45.356;20.392;2023-06-14T08:34:26;12.38;;;2.67;;
56116;SDS011;41989;45.356;20.392;2023-06-14T08:36:53;4.88;;;1.90;;
56116;SDS011;41989;45.356;20.392;2023-06-14T08:39:19;3.88;;;2.10;;
56116;SDS011;41989;45.356;20.392;2023-06-14T08:41:47;4.03;;;1.98;;
56116;SDS011;41989;45.356;20.392;2023-06-14T08:44:14;8.45;;;2.22;;
56116;SDS011;41989;45.356;20.392;2023-06-14T08:46:40;10.80;;;2.30;;
56116;SDS011;41989;45.356;20.392;2023-06-14T08:49:07;7.20;;;2.67;;
56116;SDS011;41989;45.356;20.392;2023-06-14T08:51:34;6.03;;;2.30;;
56116;SDS011;41989;45.356;20.392;2023-06-14T08:54:01;4.43;;;2.20;;
56116;SDS011;41989;45.356;20.392;2023-06-14T08:56:29;3.72;;;1.95;;
56116;SDS011;41989;45.356;20.392;2023-06-14T08:58:59;3.17;;;1.95;;
56116;SDS011;41989;45.356;20.392;2023-06-14T09:01:34;4.22;;;1.95;;
56116;SDS011;41989;45.356;20.392;2023-06-14T09:04:00;6.00;;;2.25;;
56116;SDS011;41989;45.356;20.392;2023-06-14T09:06:27;5.38;;;2.13;;
56116;SDS011;41989;45.356;20.392;2023-06-14T09:08:54;6.10;;;2.22;;
56116;SDS011;41989;45.356;20.392;2023-06-14T09:11:22;5.97;;;2.10;;
56116;SDS011;41989;45.356;20.392;2023-06-14T09:13:49;10.18;;;2.63;;
56116;SDS011;41989;45.356;20.392;2023-06-14T09:16:15;4.22;;;2.05;;
56116;SDS011;41989;45.356;20.392;2023-06-14T09:18:43;8.63;;;1.98;;
56116;SDS011;41989;45.356;20.392;2023-06-14T09:21:09;3.92;;;1.80;;
56116;SDS011;41989;45.356;20.392;2023-06-14T09:23:39;6.07;;;2.45;;
56116;SDS011;41989;45.356;20.392;2023-06-14T09:26:13;5.88;;;2.38;;
56116;SDS011;41989;45.356;20.392;2023-06-14T09:28:46;5.70;;;2.35;;
56116;SDS011;41989;45.356;20.392;2023-06-14T09:31:16;6.65;;;2.88;;
56116;SDS011;41989;45.356;20.392;2023-06-14T09:33:43;3.95;;;1.95;;
56116;SDS011;41989;45.356;20.392;2023-06-14T09:36:16;6.93;;;2.20;;
56116;SDS011;41989;45.356;20.392;2023-06-14T09:38:51;5.72;;;1.80;;
56116;SDS011;41989;45.356;20.392;2023-06-14T09:41:17;5.13;;;1.80;;
56116;SDS011;41989;45.356;20.392;2023-06-14T09:43:43;3.92;;;1.90;;
56116;SDS011;41989;45.356;20.392;2023-06-14T09:46:10;4.88;;;2.05;;
56116;SDS011;41989;45.356;20.392;2023-06-14T09:48:36;5.70;;;1.90;;
56116;SDS011;41989;45.356;20.392;2023-06-14T09:51:07;7.40;;;1.92;;
56116;SDS011;41989;45.356;20.392;2023-06-14T09:53:34;4.50;;;2.35;;
56116;SDS011;41989;45.356;20.392;2023-06-14T09:56:01;4.72;;;2.63;;
56116;SDS011;41989;45.356;20.392;2023-06-14T09:58:28;3.67;;;2.13;;
56116;SDS011;41989;45.356;20.392;2023-06-14T10:00:54;2.85;;;2.10;;
56116;SDS011;41989;45.356;20.392;2023-06-14T10:03:22;3.17;;;2.45;;
56116;SDS011;41989;45.356;20.392;2023-06-14T10:05:51;3.95;;;2.00;;
56116;SDS011;41989;45.356;20.392;2023-06-14T10:08:22;7.28;;;2.30;;
56116;SDS011;41989;45.356;20.392;2023-06-14T10:10:50;6.18;;;1.83;;
56116;SDS011;41989;45.356;20.392;2023-06-14T10:13:19;3.47;;;2.10;;
56116;SDS011;41989;45.356;20.392;2023-06-14T10:18:19;7.70;;;2.10;;
56116;SDS011;41989;45.356;20.392;2023-06-14T10:20:55;4.28;;;2.50;;
56116;SDS011;41989;45.356;20.392;2023-06-14T10:23:24;2.90;;;1.90;;
56116;SDS011;41989;45.356;20.392;2023-06-14T10:25:56;4.97;;;2.08;;
56116;SDS011;41989;45.356;20.392;2023-06-14T10:28:22;5.03;;;2.10;;
56116;SDS011;41989;45.356;20.392;2023-06-14T10:31:08;3.88;;;2.53;;
56116;SDS011;41989;45.356;20.392;2023-06-14T10:33:35;4.38;;;2.55;;
56116;SDS011;41989;45.356;20.392;2023-06-14T10:38:33;5.85;;;2.08;;
56116;SDS011;41989;45.356;20.392;2023-06-14T10:41:01;4.45;;;2.28;;
56116;SDS011;41989;45.356;20.392;2023-06-14T10:43:27;7.95;;;1.95;;
56116;SDS011;41989;45.356;20.392;2023-06-14T10:48:41;5.40;;;1.85;;
56116;SDS011;41989;45.356;20.392;2023-06-14T10:51:15;4.18;;;2.20;;
56116;SDS011;41989;45.356;20.392;2023-06-14T10:53:45;5.68;;;2.40;;
56116;SDS011;41989;45.356;20.392;2023-06-14T10:56:26;3.38;;;2.22;;
56116;SDS011;41989;45.356;20.392;2023-06-14T10:58:53;5.47;;;2.72;;
56116;SDS011;41989;45.356;20.392;2023-06-14T11:01:23;5.60;;;2.17;;
56116;SDS011;41989;45.356;20.392;2023-06-14T11:03:54;4.38;;;2.40;;
56116;SDS011;41989;45.356;20.392;2023-06-14T11:06:22;8.50;;;2.47;;
56116;SDS011;41989;45.356;20.392;2023-06-14T11:11:17;5.65;;;2.47;;
56116;SDS011;41989;45.356;20.392;2023-06-14T11:13:44;6.07;;;2.28;;
56116;SDS011;41989;45.356;20.392;2023-06-14T11:16:15;5.45;;;2.00;;
56116;SDS011;41989;45.356;20.392;2023-06-14T11:18:41;8.52;;;2.15;;
56116;SDS011;41989;45.356;20.392;2023-06-14T11:21:07;5.45;;;2.60;;
56116;SDS011;41989;45.356;20.392;2023-06-14T11:23:34;4.75;;;2.22;;
56116;SDS011;41989;45.356;20.392;2023-06-14T11:26:00;3.75;;;2.10;;
56116;SDS011;41989;45.356;20.392;2023-06-14T11:28:36;7.03;;;2.50;;
56116;SDS011;41989;45.356;20.392;2023-06-14T11:31:03;3.42;;;2.10;;
56116;SDS011;41989;45.356;20.392;2023-06-14T11:33:29;6.45;;;2.00;;
56116;SDS011;41989;45.356;20.392;2023-06-14T11:35:55;2.92;;;2.28;;
56116;SDS011;41989;45.356;20.392;2023-06-14T11:38:21;12.40;;;2.70;;
56116;SDS011;41989;45.356;20.392;2023-06-14T11:40:48;10.65;;;4.43;;
56116;SDS011;41989;45.356;20.392;2023-06-14T11:43:14;4.68;;;2.20;;
56116;SDS011;41989;45.356;20.392;2023-06-14T11:45:40;10.52;;;2.40;;
56116;SDS011;41989;45.356;20.392;2023-06-14T11:48:06;4.18;;;2.40;;
56116;SDS011;41989;45.356;20.392;2023-06-14T11:50:32;5.60;;;2.53;;
56116;SDS011;41989;45.356;20.392;2023-06-14T11:52:59;11.30;;;2.40;;
56116;SDS011;41989;45.356;20.392;2023-06-14T11:55:32;6.03;;;2.10;;
56116;SDS011;41989;45.356;20.392;2023-06-14T11:57:58;7.45;;;2.47;;
56116;SDS011;41989;45.356;20.392;2023-06-14T12:00:24;6.97;;;2.67;;
56116;SDS011;41989;45.356;20.392;2023-06-14T12:02:53;5.30;;;2.63;;
56116;SDS011;41989;45.356;20.392;2023-06-14T12:05:21;5.68;;;2.15;;
56116;SDS011;41989;45.356;20.392;2023-06-14T12:07:47;5.70;;;2.38;;
56116;SDS011;41989;45.356;20.392;2023-06-14T12:10:13;5.45;;;2.15;;
56116;SDS011;41989;45.356;20.392;2023-06-14T12:12:40;3.10;;;2.08;;
56116;SDS011;41989;45.356;20.392;2023-06-14T12:15:07;5.07;;;2.40;;
56116;SDS011;41989;45.356;20.392;2023-06-14T12:17:37;6.85;;;2.42;;
56116;SDS011;41989;45.356;20.392;2023-06-14T12:20:09;2.70;;;1.90;;
56116;SDS011;41989;45.356;20.392;2023-06-14T12:25:03;5.88;;;2.65;;
56116;SDS011;41989;45.356;20.392;2023-06-14T12:27:29;3.92;;;2.03;;
56116;SDS011;41989;45.356;20.392;2023-06-14T12:29:59;4.13;;;2.20;;
56116;SDS011;41989;45.356;20.392;2023-06-14T12:32:25;3.55;;;2.20;;
56116;SDS011;41989;45.356;20.392;2023-06-14T12:34:52;3.63;;;2.63;;
56116;SDS011;41989;45.356;20.392;2023-06-14T12:37:18;3.75;;;2.40;;
56116;SDS011;41989;45.356;20.392;2023-06-14T12:39:44;4.75;;;2.42;;
56116;SDS011;41989;45.356;20.392;2023-06-14T12:42:10;3.92;;;2.17;;
56116;SDS011;41989;45.356;20.392;2023-06-14T12:44:38;6.88;;;2.45;;
56116;SDS011;41989;45.356;20.392;2023-06-14T12:47:07;4.47;;;2.42;;
56116;SDS011;41989;45.356;20.392;2023-06-14T12:49:33;5.00;;;2.38;;
56116;SDS011;41989;45.356;20.392;2023-06-14T12:52:00;6.78;;;2.50;;
56116;SDS011;41989;45.356;20.392;2023-06-14T12:54:26;7.10;;;2.97;;
56116;SDS011;41989;45.356;20.392;2023-06-14T12:56:52;5.95;;;2.38;;
56116;SDS011;41989;45.356;20.392;2023-06-14T12:59:20;4.97;;;2.38;;
56116;SDS011;41989;45.356;20.392;2023-06-14T13:01:46;4.88;;;2.42;;
56116;SDS011;41989;45.356;20.392;2023-06-14T13:04:15;4.75;;;2.08;;
56116;SDS011;41989;45.356;20.392;2023-06-14T13:06:41;5.13;;;2.63;;
56116;SDS011;41989;45.356;20.392;2023-06-14T13:09:07;4.20;;;2.60;;
56116;SDS011;41989;45.356;20.392;2023-06-14T13:11:33;7.63;;;2.78;;
56116;SDS011;41989;45.356;20.392;2023-06-14T13:14:00;6.72;;;2.40;;
56116;SDS011;41989;45.356;20.392;2023-06-14T13:16:26;4.63;;;2.30;;
56116;SDS011;41989;45.356;20.392;2023-06-14T13:18:52;8.13;;;2.60;;
56116;SDS011;41989;45.356;20.392;2023-06-14T13:21:18;4.95;;;2.63;;
56116;SDS011;41989;45.356;20.392;2023-06-14T13:23:44;6.55;;;2.75;;
56116;SDS011;41989;45.356;20.392;2023-06-14T13:26:10;6.10;;;2.55;;
56116;SDS011;41989;45.356;20.392;2023-06-14T13:28:37;11.65;;;2.60;;
56116;SDS011;41989;45.356;20.392;2023-06-14T13:31:03;6.93;;;2.55;;
56116;SDS011;41989;45.356;20.392;2023-06-14T13:33:29;6.22;;;2.53;;
56116;SDS011;41989;45.356;20.392;2023-06-14T13:35:55;7.40;;;2.42;;
56116;SDS011;41989;45.356;20.392;2023-06-14T13:38:21;5.97;;;2.50;;
56116;SDS011;41989;45.356;20.392;2023-06-14T13:40:47;6.35;;;2.63;;
56116;SDS011;41989;45.356;20.392;2023-06-14T13:43:13;7.93;;;2.78;;
56116;SDS011;41989;45.356;20.392;2023-06-14T13:45:39;7.25;;;2.38;;
56116;SDS011;41989;45.356;20.392;2023-06-14T13:48:09;7.88;;;2.42;;
56116;SDS011;41989;45.356;20.392;2023-06-14T13:50:37;5.53;;;2.20;;
56116;SDS011;41989;45.356;20.392;2023-06-14T13:53:03;7.78;;;2.60;;
56116;SDS011;41989;45.356;20.392;2023-06-14T13:55:29;5.00;;;2.40;;
56116;SDS011;41989;45.356;20.392;2023-06-14T13:57:55;6.55;;;2.40;;
56116;SDS011;41989;45.356;20.392;2023-06-14T14:00:22;6.50;;;2.47;;
56116;SDS011;41989;45.356;20.392;2023-06-14T14:02:48;6.25;;;2.42;;
56116;SDS011;41989;45.356;20.392;2023-06-14T14:05:15;5.05;;;2.60;;
56116;SDS011;41989;45.356;20.392;2023-06-14T14:07:42;6.35;;;2.45;;
56116;SDS011;41989;45.356;20.392;2023-06-14T14:10:08;7.90;;;2.25;;
56116;SDS011;41989;45.356;20.392;2023-06-14T14:12:34;5.68;;;2.35;;
56116;SDS011;41989;45.356;20.392;2023-06-14T14:15:00;5.22;;;2.17;;
56116;SDS011;41989;45.356;20.392;2023-06-14T14:17:26;3.10;;;2.13;;
56116;SDS011;41989;45.356;20.392;2023-06-14T14:19:52;3.88;;;2.67;;
56116;SDS011;41989;45.356;20.392;2023-06-14T14:22:18;4.55;;;2.50;;
56116;SDS011;41989;45.356;20.392;2023-06-14T14:24:47;4.30;;;2.00;;
56116;SDS011;41989;45.356;20.392;2023-06-14T14:27:13;6.28;;;2.42;;
56116;SDS011;41989;45.356;20.392;2023-06-14T14:29:40;11.05;;;2.67;;
56116;SDS011;41989;45.356;20.392;2023-06-14T14:32:06;3.58;;;2.03;;
56116;SDS011;41989;45.356;20.392;2023-06-14T14:34:32;5.50;;;2.30;;
56116;SDS011;41989;45.356;20.392;2023-06-14T14:36:58;6.30;;;2.50;;
56116;SDS011;41989;45.356;20.392;2023-06-14T14:39:24;5.78;;;2.53;;
56116;SDS011;41989;45.356;20.392;2023-06-14T14:41:51;4.32;;;2.20;;
56116;SDS011;41989;45.356;20.392;2023-06-14T14:44:17;3.45;;;2.20;;
56116;SDS011;41989;45.356;20.392;2023-06-14T14:46:44;4.53;;;1.90;;
56116;SDS011;41989;45.356;20.392;2023-06-14T14:49:10;3.53;;;2.15;;
56116;SDS011;41989;45.356;20.392;2023-06-14T14:51:36;8.00;;;2.40;;
56116;SDS011;41989;45.356;20.392;2023-06-14T14:54:03;4.90;;;2.30;;
56116;SDS011;41989;45.356;20.392;2023-06-14T14:56:32;4.88;;;1.90;;
56116;SDS011;41989;45.356;20.392;2023-06-14T14:59:00;5.50;;;2.17;;
56116;SDS011;41989;45.356;20.392;2023-06-14T15:01:26;6.07;;;2.22;;
56116;SDS011;41989;45.356;20.392;2023-06-14T15:03:52;7.25;;;2.30;;
56116;SDS011;41989;45.356;20.392;2023-06-14T15:06:18;4.88;;;2.58;;
56116;SDS011;41989;45.356;20.392;2023-06-14T15:08:44;7.85;;;2.58;;
56116;SDS011;41989;45.356;20.392;2023-06-14T15:11:10;3.97;;;2.30;;
56116;SDS011;41989;45.356;20.392;2023-06-14T15:13:36;4.43;;;2.17;;
56116;SDS011;41989;45.356;20.392;2023-06-14T15:16:02;11.32;;;2.85;;
56116;SDS011;41989;45.356;20.392;2023-06-14T15:18:28;5.15;;;2.33;;